Terminal Aerodrome Forecast
Issued by NWS

Home | Current Version | Previous Version | Text Only | Print | Product List | Glossary On
Versions: 1 2 3 4 5 6 7 8 9 10 11 12 13 14 15 16 17 18 19 20 21 22 23 24 25 26 27 28
000
FTUS43 KPAH 212300 RRA
TAFOWB
TAF
KOWB 212339Z 2200/2224 11004KT P6SM SCT250
     FM220600 13006KT P6SM SCT020 BKN060 OVC080
     FM220930 15007KT P6SM -RA OVC018
     FM221230 16007KT 4SM -RA BR OVC022
      TEMPO 2216/2218 BKN006 OVC020
     FM221900 15006KT P6SM -RA BKN010 OVC025=

USA.gov is the U.S. government's official web portal to all federal, state and local government web resources and services.